sensor_id;sensor_type;location;lat;lon;timestamp;P1;durP1;ratioP1;P2;durP2;ratioP2
82032;SDS011;71595;52.180;4.512;2024-02-15T00:01:30;12.82;;;3.58;;
82032;SDS011;71595;52.180;4.512;2024-02-15T00:03:56;10.82;;;3.22;;
82032;SDS011;71595;52.180;4.512;2024-02-15T00:06:22;9.27;;;3.40;;
82032;SDS011;71595;52.180;4.512;2024-02-15T00:08:48;15.98;;;3.80;;
82032;SDS011;71595;52.180;4.512;2024-02-15T00:11:15;11.07;;;4.78;;
82032;SDS011;71595;52.180;4.512;2024-02-15T00:13:40;13.82;;;3.40;;
82032;SDS011;71595;52.180;4.512;2024-02-15T00:16:06;8.32;;;2.63;;
82032;SDS011;71595;52.180;4.512;2024-02-15T00:18:31;12.45;;;3.20;;
82032;SDS011;71595;52.180;4.512;2024-02-15T00:20:57;14.60;;;3.72;;
82032;SDS011;71595;52.180;4.512;2024-02-15T00:23:22;9.10;;;3.00;;
82032;SDS011;71595;52.180;4.512;2024-02-15T00:25:48;12.02;;;3.40;;
82032;SDS011;71595;52.180;4.512;2024-02-15T00:28:14;11.50;;;2.95;;
82032;SDS011;71595;52.180;4.512;2024-02-15T00:30:40;7.00;;;2.85;;
82032;SDS011;71595;52.180;4.512;2024-02-15T00:33:05;7.95;;;2.67;;
82032;SDS011;71595;52.180;4.512;2024-02-15T00:35:31;7.88;;;2.60;;
82032;SDS011;71595;52.180;4.512;2024-02-15T00:37:56;5.63;;;2.67;;
82032;SDS011;71595;52.180;4.512;2024-02-15T00:40:22;10.95;;;2.80;;
82032;SDS011;71595;52.180;4.512;2024-02-15T00:42:47;7.97;;;2.72;;
82032;SDS011;71595;52.180;4.512;2024-02-15T00:45:13;9.20;;;2.78;;
82032;SDS011;71595;52.180;4.512;2024-02-15T00:47:38;7.10;;;2.35;;
82032;SDS011;71595;52.180;4.512;2024-02-15T00:50:22;9.55;;;2.95;;
82032;SDS011;71595;52.180;4.512;2024-02-15T00:52:47;11.32;;;2.75;;
82032;SDS011;71595;52.180;4.512;2024-02-15T00:55:13;8.32;;;2.90;;
82032;SDS011;71595;52.180;4.512;2024-02-15T00:57:38;9.57;;;3.38;;
82032;SDS011;71595;52.180;4.512;2024-02-15T01:00:04;9.23;;;2.70;;
82032;SDS011;71595;52.180;4.512;2024-02-15T01:02:31;6.95;;;3.00;;
82032;SDS011;71595;52.180;4.512;2024-02-15T01:04:56;8.30;;;3.33;;
82032;SDS011;71595;52.180;4.512;2024-02-15T01:07:23;9.32;;;3.40;;
82032;SDS011;71595;52.180;4.512;2024-02-15T01:09:52;8.57;;;3.97;;
82032;SDS011;71595;52.180;4.512;2024-02-15T01:12:18;6.72;;;4.03;;
82032;SDS011;71595;52.180;4.512;2024-02-15T01:14:45;10.50;;;4.15;;
82032;SDS011;71595;52.180;4.512;2024-02-15T01:17:11;9.40;;;4.22;;
82032;SDS011;71595;52.180;4.512;2024-02-15T01:19:36;7.75;;;4.38;;
82032;SDS011;71595;52.180;4.512;2024-02-15T01:22:01;8.70;;;4.13;;
82032;SDS011;71595;52.180;4.512;2024-02-15T01:24:27;12.55;;;4.93;;
82032;SDS011;71595;52.180;4.512;2024-02-15T01:26:53;10.48;;;4.57;;
82032;SDS011;71595;52.180;4.512;2024-02-15T01:29:19;10.43;;;4.90;;
82032;SDS011;71595;52.180;4.512;2024-02-15T01:31:45;9.85;;;4.72;;
82032;SDS011;71595;52.180;4.512;2024-02-15T01:34:11;11.20;;;5.60;;
82032;SDS011;71595;52.180;4.512;2024-02-15T01:36:36;8.05;;;4.30;;
82032;SDS011;71595;52.180;4.512;2024-02-15T01:39:01;11.52;;;4.82;;
82032;SDS011;71595;52.180;4.512;2024-02-15T01:41:27;8.55;;;4.80;;
82032;SDS011;71595;52.180;4.512;2024-02-15T01:43:52;12.82;;;4.78;;
82032;SDS011;71595;52.180;4.512;2024-02-15T01:46:17;10.82;;;5.10;;
82032;SDS011;71595;52.180;4.512;2024-02-15T01:48:45;12.70;;;5.78;;
82032;SDS011;71595;52.180;4.512;2024-02-15T01:51:12;11.13;;;4.88;;
82032;SDS011;71595;52.180;4.512;2024-02-15T01:53:40;10.15;;;4.55;;
82032;SDS011;71595;52.180;4.512;2024-02-15T01:56:14;9.82;;;4.80;;
82032;SDS011;71595;52.180;4.512;2024-02-15T01:58:42;9.75;;;4.55;;
82032;SDS011;71595;52.180;4.512;2024-02-15T02:01:10;12.60;;;4.90;;
82032;SDS011;71595;52.180;4.512;2024-02-15T02:03:36;9.48;;;4.88;;
82032;SDS011;71595;52.180;4.512;2024-02-15T02:06:01;9.77;;;4.68;;
82032;SDS011;71595;52.180;4.512;2024-02-15T02:08:28;12.43;;;4.57;;
82032;SDS011;71595;52.180;4.512;2024-02-15T02:10:53;8.40;;;4.30;;
82032;SDS011;71595;52.180;4.512;2024-02-15T02:13:19;10.63;;;4.45;;
82032;SDS011;71595;52.180;4.512;2024-02-15T02:15:44;11.75;;;4.72;;
82032;SDS011;71595;52.180;4.512;2024-02-15T02:18:10;11.60;;;4.97;;
82032;SDS011;71595;52.180;4.512;2024-02-15T02:20:35;11.02;;;4.40;;
82032;SDS011;71595;52.180;4.512;2024-02-15T02:23:03;10.68;;;4.70;;
82032;SDS011;71595;52.180;4.512;2024-02-15T02:25:35;8.40;;;4.10;;
82032;SDS011;71595;52.180;4.512;2024-02-15T02:28:00;10.32;;;4.38;;
82032;SDS011;71595;52.180;4.512;2024-02-15T02:30:26;9.85;;;4.47;;
82032;SDS011;71595;52.180;4.512;2024-02-15T02:32:55;10.23;;;4.35;;
82032;SDS011;71595;52.180;4.512;2024-02-15T02:35:22;8.52;;;4.28;;
82032;SDS011;71595;52.180;4.512;2024-02-15T02:37:47;11.55;;;4.20;;
82032;SDS011;71595;52.180;4.512;2024-02-15T02:40:12;10.20;;;4.10;;
82032;SDS011;71595;52.180;4.512;2024-02-15T02:42:51;9.30;;;3.80;;
82032;SDS011;71595;52.180;4.512;2024-02-15T02:45:26;7.18;;;4.10;;
82032;SDS011;71595;52.180;4.512;2024-02-15T02:47:52;10.07;;;4.00;;
82032;SDS011;71595;52.180;4.512;2024-02-15T02:50:19;8.60;;;3.67;;
82032;SDS011;71595;52.180;4.512;2024-02-15T02:52:45;10.82;;;4.68;;
82032;SDS011;71595;52.180;4.512;2024-02-15T02:55:13;12.82;;;4.28;;
82032;SDS011;71595;52.180;4.512;2024-02-15T02:57:38;9.70;;;3.33;;
82032;SDS011;71595;52.180;4.512;2024-02-15T03:00:13;9.82;;;3.55;;
82032;SDS011;71595;52.180;4.512;2024-02-15T03:02:43;8.23;;;3.72;;
82032;SDS011;71595;52.180;4.512;2024-02-15T03:05:09;11.45;;;3.70;;
82032;SDS011;71595;52.180;4.512;2024-02-15T03:07:36;10.55;;;3.63;;
82032;SDS011;71595;52.180;4.512;2024-02-15T03:10:02;6.93;;;3.28;;
82032;SDS011;71595;52.180;4.512;2024-02-15T03:12:35;9.13;;;3.13;;
82032;SDS011;71595;52.180;4.512;2024-02-15T03:15:04;7.50;;;3.53;;
82032;SDS011;71595;52.180;4.512;2024-02-15T03:17:43;8.48;;;3.65;;
82032;SDS011;71595;52.180;4.512;2024-02-15T03:20:11;8.63;;;3.72;;
82032;SDS011;71595;52.180;4.512;2024-02-15T03:22:56;7.80;;;3.75;;
82032;SDS011;71595;52.180;4.512;2024-02-15T03:25:22;7.85;;;3.75;;
82032;SDS011;71595;52.180;4.512;2024-02-15T03:27:49;7.45;;;3.47;;
82032;SDS011;71595;52.180;4.512;2024-02-15T03:30:19;8.98;;;3.53;;
82032;SDS011;71595;52.180;4.512;2024-02-15T03:32:48;9.20;;;4.00;;
82032;SDS011;71595;52.180;4.512;2024-02-15T03:35:14;8.43;;;4.07;;
82032;SDS011;71595;52.180;4.512;2024-02-15T03:37:43;14.15;;;4.38;;
82032;SDS011;71595;52.180;4.512;2024-02-15T03:40:08;7.63;;;3.72;;
82032;SDS011;71595;52.180;4.512;2024-02-15T03:42:34;9.45;;;3.78;;
82032;SDS011;71595;52.180;4.512;2024-02-15T03:45:06;9.38;;;3.53;;
82032;SDS011;71595;52.180;4.512;2024-02-15T03:47:32;9.57;;;4.05;;
82032;SDS011;71595;52.180;4.512;2024-02-15T03:50:04;13.10;;;4.53;;
82032;SDS011;71595;52.180;4.512;2024-02-15T03:52:30;9.18;;;4.47;;
82032;SDS011;71595;52.180;4.512;2024-02-15T03:54:56;9.30;;;4.22;;
82032;SDS011;71595;52.180;4.512;2024-02-15T03:57:22;11.07;;;4.68;;
82032;SDS011;71595;52.180;4.512;2024-02-15T03:59:48;9.25;;;4.90;;
82032;SDS011;71595;52.180;4.512;2024-02-15T04:02:18;10.23;;;4.88;;
82032;SDS011;71595;52.180;4.512;2024-02-15T04:04:44;8.57;;;6.22;;
82032;SDS011;71595;52.180;4.512;2024-02-15T04:07:13;9.23;;;5.75;;
82032;SDS011;71595;52.180;4.512;2024-02-15T04:09:39;13.30;;;6.65;;
82032;SDS011;71595;52.180;4.512;2024-02-15T04:12:05;12.52;;;6.78;;
82032;SDS011;71595;52.180;4.512;2024-02-15T04:14:32;10.82;;;5.97;;
82032;SDS011;71595;52.180;4.512;2024-02-15T04:16:59;11.43;;;6.82;;
82032;SDS011;71595;52.180;4.512;2024-02-15T04:19:24;11.38;;;7.00;;
82032;SDS011;71595;52.180;4.512;2024-02-15T04:21:53;9.75;;;6.75;;
82032;SDS011;71595;52.180;4.512;2024-02-15T04:24:20;11.35;;;6.93;;
82032;SDS011;71595;52.180;4.512;2024-02-15T04:26:46;12.55;;;7.25;;
82032;SDS011;71595;52.180;4.512;2024-02-15T04:29:13;9.93;;;6.47;;
82032;SDS011;71595;52.180;4.512;2024-02-15T04:31:42;11.73;;;7.03;;
82032;SDS011;71595;52.180;4.512;2024-02-15T04:34:08;11.55;;;7.43;;
82032;SDS011;71595;52.180;4.512;2024-02-15T04:36:36;9.90;;;7.22;;
82032;SDS011;71595;52.180;4.512;2024-02-15T04:39:02;11.20;;;8.43;;
82032;SDS011;71595;52.180;4.512;2024-02-15T04:41:27;13.40;;;7.82;;
82032;SDS011;71595;52.180;4.512;2024-02-15T04:43:54;15.30;;;8.43;;
82032;SDS011;71595;52.180;4.512;2024-02-15T04:46:19;12.43;;;7.97;;
82032;SDS011;71595;52.180;4.512;2024-02-15T04:48:48;11.90;;;7.95;;
82032;SDS011;71595;52.180;4.512;2024-02-15T04:51:31;10.45;;;7.15;;
82032;SDS011;71595;52.180;4.512;2024-02-15T04:53:57;10.95;;;7.38;;
82032;SDS011;71595;52.180;4.512;2024-02-15T04:56:23;10.45;;;7.22;;
82032;SDS011;71595;52.180;4.512;2024-02-15T04:58:49;10.02;;;7.07;;
82032;SDS011;71595;52.180;4.512;2024-02-15T05:01:16;10.00;;;6.63;;
82032;SDS011;71595;52.180;4.512;2024-02-15T05:03:44;9.45;;;6.53;;
82032;SDS011;71595;52.180;4.512;2024-02-15T05:06:10;9.80;;;7.07;;
82032;SDS011;71595;52.180;4.512;2024-02-15T05:08:37;11.35;;;7.45;;
82032;SDS011;71595;52.180;4.512;2024-02-15T05:11:10;11.23;;;7.20;;
82032;SDS011;71595;52.180;4.512;2024-02-15T05:13:45;12.93;;;7.30;;
82032;SDS011;71595;52.180;4.512;2024-02-15T05:16:11;11.60;;;7.35;;
82032;SDS011;71595;52.180;4.512;2024-02-15T05:18:37;10.98;;;7.13;;
82032;SDS011;71595;52.180;4.512;2024-02-15T05:21:05;12.68;;;7.95;;
82032;SDS011;71595;52.180;4.512;2024-02-15T05:23:34;12.68;;;7.85;;
82032;SDS011;71595;52.180;4.512;2024-02-15T05:26:00;12.57;;;8.15;;
82032;SDS011;71595;52.180;4.512;2024-02-15T05:28:25;13.23;;;7.35;;
82032;SDS011;71595;52.180;4.512;2024-02-15T05:33:45;13.07;;;8.32;;
82032;SDS011;71595;52.180;4.512;2024-02-15T05:36:12;11.73;;;7.60;;
82032;SDS011;71595;52.180;4.512;2024-02-15T05:38:41;12.98;;;8.57;;
82032;SDS011;71595;52.180;4.512;2024-02-15T05:41:13;13.43;;;7.93;;
82032;SDS011;71595;52.180;4.512;2024-02-15T05:43:39;14.82;;;7.97;;
82032;SDS011;71595;52.180;4.512;2024-02-15T05:46:06;15.85;;;8.82;;
82032;SDS011;71595;52.180;4.512;2024-02-15T05:48:33;16.60;;;9.35;;
82032;SDS011;71595;52.180;4.512;2024-02-15T05:51:02;16.88;;;9.25;;
82032;SDS011;71595;52.180;4.512;2024-02-15T05:53:28;12.10;;;7.88;;
82032;SDS011;71595;52.180;4.512;2024-02-15T05:55:54;12.15;;;7.82;;
82032;SDS011;71595;52.180;4.512;2024-02-15T05:58:26;16.15;;;8.45;;
82032;SDS011;71595;52.180;4.512;2024-02-15T06:00:52;14.88;;;8.23;;
82032;SDS011;71595;52.180;4.512;2024-02-15T06:03:18;15.63;;;8.40;;
82032;SDS011;71595;52.180;4.512;2024-02-15T06:05:44;15.05;;;7.57;;
82032;SDS011;71595;52.180;4.512;2024-02-15T06:08:12;15.65;;;8.10;;
82032;SDS011;71595;52.180;4.512;2024-02-15T06:10:38;16.52;;;8.68;;
82032;SDS011;71595;52.180;4.512;2024-02-15T06:13:04;13.00;;;7.95;;
82032;SDS011;71595;52.180;4.512;2024-02-15T06:15:29;13.85;;;8.07;;
82032;SDS011;71595;52.180;4.512;2024-02-15T06:17:55;12.75;;;8.18;;
82032;SDS011;71595;52.180;4.512;2024-02-15T06:20:22;13.85;;;7.18;;
82032;SDS011;71595;52.180;4.512;2024-02-15T06:22:47;14.95;;;8.13;;
82032;SDS011;71595;52.180;4.512;2024-02-15T06:25:13;14.80;;;7.93;;
82032;SDS011;71595;52.180;4.512;2024-02-15T06:27:40;12.85;;;7.30;;
82032;SDS011;71595;52.180;4.512;2024-02-15T06:30:10;10.57;;;6.97;;
82032;SDS011;71595;52.180;4.512;2024-02-15T06:32:56;12.52;;;7.20;;
82032;SDS011;71595;52.180;4.512;2024-02-15T06:35:41;12.07;;;6.55;;
82032;SDS011;71595;52.180;4.512;2024-02-15T06:38:26;10.95;;;6.50;;
82032;SDS011;71595;52.180;4.512;2024-02-15T06:41:10;9.52;;;6.63;;
82032;SDS011;71595;52.180;4.512;2024-02-15T06:43:36;12.02;;;6.82;;
82032;SDS011;71595;52.180;4.512;2024-02-15T06:46:02;8.57;;;5.75;;
82032;SDS011;71595;52.180;4.512;2024-02-15T06:48:28;8.52;;;5.93;;
82032;SDS011;71595;52.180;4.512;2024-02-15T06:50:53;8.95;;;5.70;;
82032;SDS011;71595;52.180;4.512;2024-02-15T06:53:19;8.00;;;5.63;;
82032;SDS011;71595;52.180;4.512;2024-02-15T06:55:45;8.27;;;5.10;;
82032;SDS011;71595;52.180;4.512;2024-02-15T06:58:16;8.82;;;5.43;;
82032;SDS011;71595;52.180;4.512;2024-02-15T07:00:43;8.35;;;5.68;;
82032;SDS011;71595;52.180;4.512;2024-02-15T07:03:09;6.82;;;4.63;;
82032;SDS011;71595;52.180;4.512;2024-02-15T07:05:36;7.25;;;4.90;;
82032;SDS011;71595;52.180;4.512;2024-02-15T07:08:03;6.88;;;4.93;;
82032;SDS011;71595;52.180;4.512;2024-02-15T07:10:30;6.38;;;4.40;;
82032;SDS011;71595;52.180;4.512;2024-02-15T07:12:56;7.30;;;5.30;;
82032;SDS011;71595;52.180;4.512;2024-02-15T07:15:22;6.95;;;5.00;;
82032;SDS011;71595;52.180;4.512;2024-02-15T07:17:47;6.20;;;4.55;;
82032;SDS011;71595;52.180;4.512;2024-02-15T07:20:13;8.20;;;4.30;;
82032;SDS011;71595;52.180;4.512;2024-02-15T07:22:43;7.28;;;4.70;;
82032;SDS011;71595;52.180;4.512;2024-02-15T07:25:10;7.25;;;4.75;;
82032;SDS011;71595;52.180;4.512;2024-02-15T07:27:36;6.40;;;4.55;;
82032;SDS011;71595;52.180;4.512;2024-02-15T07:30:02;7.18;;;4.57;;
82032;SDS011;71595;52.180;4.512;2024-02-15T07:32:29;7.75;;;4.70;;
82032;SDS011;71595;52.180;4.512;2024-02-15T07:35:05;9.82;;;6.32;;
82032;SDS011;71595;52.180;4.512;2024-02-15T07:37:33;7.53;;;5.28;;
82032;SDS011;71595;52.180;4.512;2024-02-15T07:40:01;6.32;;;4.10;;
82032;SDS011;71595;52.180;4.512;2024-02-15T07:42:32;6.95;;;4.55;;
82032;SDS011;71595;52.180;4.512;2024-02-15T07:44:57;7.15;;;5.10;;
82032;SDS011;71595;52.180;4.512;2024-02-15T07:47:22;9.60;;;5.88;;
82032;SDS011;71595;52.180;4.512;2024-02-15T07:49:50;7.78;;;5.25;;
82032;SDS011;71595;52.180;4.512;2024-02-15T07:52:15;7.95;;;5.00;;
82032;SDS011;71595;52.180;4.512;2024-02-15T07:54:42;6.88;;;4.70;;
82032;SDS011;71595;52.180;4.512;2024-02-15T07:57:07;7.00;;;4.88;;
82032;SDS011;71595;52.180;4.512;2024-02-15T07:59:34;7.57;;;5.07;;
82032;SDS011;71595;52.180;4.512;2024-02-15T08:02:00;7.97;;;5.00;;
82032;SDS011;71595;52.180;4.512;2024-02-15T08:04:26;8.70;;;5.35;;
82032;SDS011;71595;52.180;4.512;2024-02-15T08:06:51;7.53;;;5.65;;
82032;SDS011;71595;52.180;4.512;2024-02-15T08:09:20;8.65;;;5.20;;
82032;SDS011;71595;52.180;4.512;2024-02-15T08:11:49;9.65;;;5.93;;
82032;SDS011;71595;52.180;4.512;2024-02-15T08:14:14;8.32;;;5.47;;
82032;SDS011;71595;52.180;4.512;2024-02-15T08:16:40;10.77;;;5.80;;
82032;SDS011;71595;52.180;4.512;2024-02-15T08:19:06;8.20;;;5.00;;
82032;SDS011;71595;52.180;4.512;2024-02-15T08:21:32;10.52;;;5.18;;
82032;SDS011;71595;52.180;4.512;2024-02-15T08:23:59;8.70;;;5.30;;
82032;SDS011;71595;52.180;4.512;2024-02-15T08:26:26;7.70;;;4.57;;
82032;SDS011;71595;52.180;4.512;2024-02-15T08:28:51;8.60;;;5.13;;
82032;SDS011;71595;52.180;4.512;2024-02-15T08:31:17;7.22;;;5.28;;
82032;SDS011;71595;52.180;4.512;2024-02-15T08:33:44;7.68;;;5.43;;
82032;SDS011;71595;52.180;4.512;2024-02-15T08:36:11;10.18;;;6.45;;
82032;SDS011;71595;52.180;4.512;2024-02-15T08:38:38;11.13;;;6.63;;
82032;SDS011;71595;52.180;4.512;2024-02-15T08:41:03;11.65;;;6.72;;
82032;SDS011;71595;52.180;4.512;2024-02-15T08:43:33;11.90;;;7.00;;
82032;SDS011;71595;52.180;4.512;2024-02-15T08:45:58;11.05;;;7.32;;
82032;SDS011;71595;52.180;4.512;2024-02-15T08:48:24;11.25;;;7.05;;
82032;SDS011;71595;52.180;4.512;2024-02-15T08:50:51;9.95;;;6.82;;
82032;SDS011;71595;52.180;4.512;2024-02-15T08:53:16;11.93;;;7.53;;
82032;SDS011;71595;52.180;4.512;2024-02-15T08:55:44;12.43;;;7.53;;
82032;SDS011;71595;52.180;4.512;2024-02-15T08:58:10;12.82;;;6.28;;
82032;SDS011;71595;52.180;4.512;2024-02-15T09:00:38;15.40;;;7.22;;
82032;SDS011;71595;52.180;4.512;2024-02-15T09:03:09;13.90;;;7.85;;
82032;SDS011;71595;52.180;4.512;2024-02-15T09:05:35;13.80;;;6.78;;
82032;SDS011;71595;52.180;4.512;2024-02-15T09:08:00;10.93;;;7.05;;
82032;SDS011;71595;52.180;4.512;2024-02-15T09:10:25;9.85;;;6.40;;
82032;SDS011;71595;52.180;4.512;2024-02-15T09:12:52;10.85;;;6.47;;
82032;SDS011;71595;52.180;4.512;2024-02-15T09:15:18;11.43;;;7.45;;
82032;SDS011;71595;52.180;4.512;2024-02-15T09:17:43;13.77;;;7.30;;
82032;SDS011;71595;52.180;4.512;2024-02-15T09:20:11;13.80;;;7.63;;
82032;SDS011;71595;52.180;4.512;2024-02-15T09:22:50;12.30;;;6.90;;
82032;SDS011;71595;52.180;4.512;2024-02-15T09:25:16;12.45;;;7.35;;
82032;SDS011;71595;52.180;4.512;2024-02-15T09:27:43;13.15;;;7.03;;
82032;SDS011;71595;52.180;4.512;2024-02-15T09:30:09;10.57;;;7.03;;
82032;SDS011;71595;52.180;4.512;2024-02-15T09:32:35;12.60;;;7.38;;
82032;SDS011;71595;52.180;4.512;2024-02-15T09:35:01;21.25;;;7.85;;
82032;SDS011;71595;52.180;4.512;2024-02-15T09:37:27;16.08;;;7.30;;
82032;SDS011;71595;52.180;4.512;2024-02-15T09:39:53;13.45;;;7.65;;
82032;SDS011;71595;52.180;4.512;2024-02-15T09:42:22;14.50;;;7.90;;
82032;SDS011;71595;52.180;4.512;2024-02-15T09:44:49;11.50;;;7.38;;
82032;SDS011;71595;52.180;4.512;2024-02-15T09:47:16;16.30;;;7.90;;
82032;SDS011;71595;52.180;4.512;2024-02-15T09:49:43;15.63;;;8.07;;
82032;SDS011;71595;52.180;4.512;2024-02-15T09:52:09;13.05;;;7.13;;
82032;SDS011;71595;52.180;4.512;2024-02-15T09:54:40;15.63;;;7.70;;
82032;SDS011;71595;52.180;4.512;2024-02-15T09:57:10;12.80;;;7.80;;
82032;SDS011;71595;52.180;4.512;2024-02-15T09:59:37;13.63;;;6.93;;
82032;SDS011;71595;52.180;4.512;2024-02-15T10:02:03;13.60;;;7.45;;
82032;SDS011;71595;52.180;4.512;2024-02-15T10:04:28;18.60;;;7.55;;
82032;SDS011;71595;52.180;4.512;2024-02-15T10:06:54;12.15;;;6.78;;
82032;SDS011;71595;52.180;4.512;2024-02-15T10:09:23;15.45;;;8.45;;
82032;SDS011;71595;52.180;4.512;2024-02-15T10:11:55;13.77;;;8.45;;
82032;SDS011;71595;52.180;4.512;2024-02-15T10:14:24;13.85;;;7.72;;
82032;SDS011;71595;52.180;4.512;2024-02-15T10:16:52;17.50;;;8.63;;
82032;SDS011;71595;52.180;4.512;2024-02-15T10:19:18;12.70;;;7.63;;
82032;SDS011;71595;52.180;4.512;2024-02-15T10:21:45;15.32;;;7.45;;
82032;SDS011;71595;52.180;4.512;2024-02-15T10:24:11;15.35;;;7.05;;
82032;SDS011;71595;52.180;4.512;2024-02-15T10:26:37;12.57;;;7.32;;
82032;SDS011;71595;52.180;4.512;2024-02-15T10:29:06;15.63;;;7.43;;
82032;SDS011;71595;52.180;4.512;2024-02-15T10:31:34;14.77;;;7.22;;
82032;SDS011;71595;52.180;4.512;2024-02-15T10:34:06;13.65;;;7.95;;
82032;SDS011;71595;52.180;4.512;2024-02-15T10:36:33;13.48;;;7.38;;
82032;SDS011;71595;52.180;4.512;2024-02-15T10:39:12;17.15;;;7.38;;
82032;SDS011;71595;52.180;4.512;2024-02-15T10:41:48;12.45;;;6.78;;
82032;SDS011;71595;52.180;4.512;2024-02-15T10:44:18;13.30;;;7.00;;
82032;SDS011;71595;52.180;4.512;2024-02-15T10:46:49;12.55;;;6.32;;
82032;SDS011;71595;52.180;4.512;2024-02-15T10:51:44;13.77;;;7.32;;
82032;SDS011;71595;52.180;4.512;2024-02-15T10:54:15;14.18;;;6.95;;
82032;SDS011;71595;52.180;4.512;2024-02-15T10:56:48;15.20;;;8.35;;
82032;SDS011;71595;52.180;4.512;2024-02-15T10:59:21;12.15;;;7.68;;
82032;SDS011;71595;52.180;4.512;2024-02-15T11:01:56;17.08;;;8.60;;
82032;SDS011;71595;52.180;4.512;2024-02-15T11:04:24;15.48;;;8.40;;
82032;SDS011;71595;52.180;4.512;2024-02-15T11:06:57;13.98;;;7.57;;
82032;SDS011;71595;52.180;4.512;2024-02-15T11:09:25;16.92;;;8.38;;
82032;SDS011;71595;52.180;4.512;2024-02-15T11:11:53;11.60;;;7.82;;
82032;SDS011;71595;52.180;4.512;2024-02-15T11:14:27;13.48;;;8.82;;
82032;SDS011;71595;52.180;4.512;2024-02-15T11:17:00;14.32;;;8.15;;
82032;SDS011;71595;52.180;4.512;2024-02-15T11:22:00;13.43;;;7.97;;
82032;SDS011;71595;52.180;4.512;2024-02-15T11:24:29;13.95;;;7.85;;
82032;SDS011;71595;52.180;4.512;2024-02-15T11:27:01;10.65;;;6.47;;
82032;SDS011;71595;52.180;4.512;2024-02-15T11:29:47;8.13;;;6.05;;
82032;SDS011;71595;52.180;4.512;2024-02-15T11:42:43;8.88;;;4.15;;
82032;SDS011;71595;52.180;4.512;2024-02-15T11:45:09;6.63;;;4.25;;
82032;SDS011;71595;52.180;4.512;2024-02-15T11:47:37;9.70;;;4.70;;
82032;SDS011;71595;52.180;4.512;2024-02-15T11:50:08;8.25;;;3.67;;
82032;SDS011;71595;52.180;4.512;2024-02-15T11:52:40;7.82;;;4.25;;
82032;SDS011;71595;52.180;4.512;2024-02-15T11:55:18;9.80;;;4.32;;
82032;SDS011;71595;52.180;4.512;2024-02-15T11:57:57;7.72;;;4.15;;
82032;SDS011;71595;52.180;4.512;2024-02-15T12:00:46;9.10;;;4.55;;
82032;SDS011;71595;52.180;4.512;2024-02-15T12:03:30;8.30;;;3.75;;
82032;SDS011;71595;52.180;4.512;2024-02-15T12:06:17;7.20;;;4.38;;
82032;SDS011;71595;52.180;4.512;2024-02-15T12:09:01;8.07;;;4.20;;
82032;SDS011;71595;52.180;4.512;2024-02-15T12:11:57;7.68;;;4.00;;
82032;SDS011;71595;52.180;4.512;2024-02-15T12:14:41;7.28;;;4.40;;
82032;SDS011;71595;52.180;4.512;2024-02-15T12:17:25;7.65;;;4.55;;
82032;SDS011;71595;52.180;4.512;2024-02-15T12:20:09;8.32;;;4.75;;
82032;SDS011;71595;52.180;4.512;2024-02-15T12:22:43;8.13;;;5.47;;
82032;SDS011;71595;52.180;4.512;2024-02-15T12:25:15;9.00;;;4.90;;
82032;SDS011;71595;52.180;4.512;2024-02-15T12:27:46;9.80;;;5.10;;
82032;SDS011;71595;52.180;4.512;2024-02-15T12:30:17;8.30;;;4.78;;
82032;SDS011;71595;52.180;4.512;2024-02-15T12:32:47;10.23;;;5.38;;
82032;SDS011;71595;52.180;4.512;2024-02-15T12:35:17;8.07;;;4.43;;
82032;SDS011;71595;52.180;4.512;2024-02-15T12:37:47;8.15;;;4.50;;
82032;SDS011;71595;52.180;4.512;2024-02-15T12:40:37;8.85;;;4.38;;
82032;SDS011;71595;52.180;4.512;2024-02-15T12:43:04;6.05;;;3.60;;
82032;SDS011;71595;52.180;4.512;2024-02-15T12:45:30;6.32;;;3.35;;
82032;SDS011;71595;52.180;4.512;2024-02-15T12:47:57;6.07;;;3.45;;
82032;SDS011;71595;52.180;4.512;2024-02-15T12:50:23;8.90;;;3.33;;
82032;SDS011;71595;52.180;4.512;2024-02-15T12:52:53;6.05;;;2.85;;
82032;SDS011;71595;52.180;4.512;2024-02-15T12:55:21;7.53;;;3.35;;
82032;SDS011;71595;52.180;4.512;2024-02-15T12:57:52;6.32;;;2.30;;
82032;SDS011;71595;52.180;4.512;2024-02-15T13:00:23;4.50;;;2.13;;
82032;SDS011;71595;52.180;4.512;2024-02-15T13:02:54;4.70;;;2.75;;
82032;SDS011;71595;52.180;4.512;2024-02-15T13:05:21;8.00;;;2.22;;
82032;SDS011;71595;52.180;4.512;2024-02-15T13:07:50;5.50;;;2.65;;
82032;SDS011;71595;52.180;4.512;2024-02-15T13:10:16;5.32;;;2.70;;
82032;SDS011;71595;52.180;4.512;2024-02-15T13:12:42;4.60;;;2.10;;
82032;SDS011;71595;52.180;4.512;2024-02-15T13:15:17;4.22;;;2.10;;
82032;SDS011;71595;52.180;4.512;2024-02-15T13:17:49;6.13;;;3.03;;
82032;SDS011;71595;52.180;4.512;2024-02-15T13:20:18;3.88;;;2.25;;
82032;SDS011;71595;52.180;4.512;2024-02-15T13:22:57;4.50;;;2.55;;
82032;SDS011;71595;52.180;4.512;2024-02-15T13:25:27;4.03;;;2.42;;
82032;SDS011;71595;52.180;4.512;2024-02-15T13:27:53;3.75;;;1.77;;
82032;SDS011;71595;52.180;4.512;2024-02-15T13:30:18;4.70;;;1.60;;
82032;SDS011;71595;52.180;4.512;2024-02-15T13:32:48;6.18;;;2.08;;
82032;SDS011;71595;52.180;4.512;2024-02-15T13:35:13;3.15;;;1.50;;
82032;SDS011;71595;52.180;4.512;2024-02-15T13:37:42;4.13;;;2.00;;
82032;SDS011;71595;52.180;4.512;2024-02-15T13:40:12;6.13;;;1.65;;
82032;SDS011;71595;52.180;4.512;2024-02-15T13:42:46;5.28;;;2.00;;
82032;SDS011;71595;52.180;4.512;2024-02-15T13:45:22;5.40;;;1.63;;
82032;SDS011;71595;52.180;4.512;2024-02-15T13:47:48;3.58;;;1.60;;
82032;SDS011;71595;52.180;4.512;2024-02-15T13:50:23;3.75;;;1.70;;
82032;SDS011;71595;52.180;4.512;2024-02-15T13:52:49;6.25;;;1.70;;
82032;SDS011;71595;52.180;4.512;2024-02-15T13:55:18;2.95;;;1.50;;
82032;SDS011;71595;52.180;4.512;2024-02-15T14:00:13;4.32;;;1.63;;
82032;SDS011;71595;52.180;4.512;2024-02-15T14:02:49;4.72;;;1.58;;
82032;SDS011;71595;52.180;4.512;2024-02-15T14:05:16;4.70;;;2.05;;
82032;SDS011;71595;52.180;4.512;2024-02-15T14:07:45;5.22;;;1.88;;
82032;SDS011;71595;52.180;4.512;2024-02-15T14:10:11;4.95;;;2.30;;
82032;SDS011;71595;52.180;4.512;2024-02-15T14:12:38;5.75;;;2.00;;
82032;SDS011;71595;52.180;4.512;2024-02-15T14:15:04;4.40;;;2.15;;
82032;SDS011;71595;52.180;4.512;2024-02-15T14:17:30;4.35;;;1.80;;
82032;SDS011;71595;52.180;4.512;2024-02-15T14:19:57;3.17;;;1.58;;
82032;SDS011;71595;52.180;4.512;2024-02-15T14:22:23;4.13;;;1.73;;
82032;SDS011;71595;52.180;4.512;2024-02-15T14:24:49;3.47;;;2.00;;
82032;SDS011;71595;52.180;4.512;2024-02-15T14:27:21;6.68;;;2.78;;
82032;SDS011;71595;52.180;4.512;2024-02-15T14:29:47;8.20;;;2.30;;
82032;SDS011;71595;52.180;4.512;2024-02-15T14:32:31;4.80;;;2.47;;
82032;SDS011;71595;52.180;4.512;2024-02-15T14:35:14;5.40;;;2.13;;
82032;SDS011;71595;52.180;4.512;2024-02-15T14:37:42;8.63;;;2.50;;
82032;SDS011;71595;52.180;4.512;2024-02-15T14:40:08;6.72;;;2.13;;
82032;SDS011;71595;52.180;4.512;2024-02-15T14:42:33;3.83;;;1.95;;
82032;SDS011;71595;52.180;4.512;2024-02-15T14:45:01;6.93;;;2.55;;
82032;SDS011;71595;52.180;4.512;2024-02-15T14:47:28;7.57;;;1.90;;
82032;SDS011;71595;52.180;4.512;2024-02-15T14:49:53;5.90;;;2.38;;
82032;SDS011;71595;52.180;4.512;2024-02-15T14:52:20;6.35;;;2.55;;
82032;SDS011;71595;52.180;4.512;2024-02-15T14:54:49;8.25;;;3.05;;
82032;SDS011;71595;52.180;4.512;2024-02-15T14:57:15;6.57;;;2.60;;
82032;SDS011;71595;52.180;4.512;2024-02-15T14:59:40;4.93;;;2.38;;
82032;SDS011;71595;52.180;4.512;2024-02-15T15:02:07;7.35;;;2.20;;
82032;SDS011;71595;52.180;4.512;2024-02-15T15:04:34;7.50;;;2.47;;
82032;SDS011;71595;52.180;4.512;2024-02-15T15:07:12;5.45;;;2.30;;
82032;SDS011;71595;52.180;4.512;2024-02-15T15:09:57;7.18;;;2.47;;